createdAt,value
2018-04-17T00:00:12.885Z,15.69
2018-04-17T00:02:41.249Z,15.67
2018-04-17T00:05:09.878Z,15.43
2018-04-17T00:07:38.308Z,15.68
2018-04-17T00:10:10.979Z,15.67
2018-04-17T00:12:39.373Z,15.67
2018-04-17T00:15:15.296Z,15.03
2018-04-17T00:17:43.688Z,15.72
2018-04-17T00:20:12.430Z,15.70
2018-04-17T00:22:40.569Z,15.68
2018-04-17T00:25:12.963Z,15.68
2018-04-17T00:27:41.361Z,15.65
2018-04-17T00:30:13.057Z,15.09
2018-04-17T00:32:41.438Z,15.62
2018-04-17T00:35:09.809Z,15.60
2018-04-17T00:37:38.168Z,15.58
2018-04-17T00:40:15.354Z,15.55
2018-04-17T00:42:43.725Z,15.50
2018-04-17T00:45:15.712Z,15.52
2018-04-17T00:47:44.081Z,15.51
2018-04-17T00:50:14.237Z,15.49
2018-04-17T00:52:42.626Z,15.48
2018-04-17T00:55:10.777Z,15.44
2018-04-17T00:57:39.138Z,15.43
2018-04-17T01:00:13.467Z,14.76
2018-04-17T01:02:42.477Z,15.42
2018-04-17T01:05:11.822Z,15.43
2018-04-17T01:07:40.195Z,15.44
2018-04-17T01:10:16.045Z,15.41
2018-04-17T01:12:44.457Z,15.42
2018-04-17T01:15:12.832Z,15.39
2018-04-17T01:17:41.201Z,15.40
2018-04-17T01:20:11.166Z,15.15
2018-04-17T01:22:39.539Z,15.43
2018-04-17T01:25:14.733Z,15.14
2018-04-17T01:27:43.124Z,15.36
2018-04-17T01:30:16.354Z,15.38
2018-04-17T01:32:44.723Z,15.40
2018-04-17T01:35:17.199Z,14.84
2018-04-17T01:37:46.357Z,15.41
2018-04-17T01:40:14.723Z,14.85
2018-04-17T01:42:43.101Z,15.39
2018-04-17T01:45:16.158Z,15.40
2018-04-17T01:47:44.533Z,15.41
2018-04-17T01:50:14.562Z,15.40
2018-04-17T01:52:42.973Z,15.41
2018-04-17T01:55:16.138Z,15.42
2018-04-17T01:57:44.527Z,15.37
2018-04-17T02:00:16.543Z,15.33
2018-04-17T02:02:44.930Z,15.30
2018-04-17T02:05:14.225Z,14.67
2018-04-17T02:07:42.604Z,15.23
2018-04-17T02:10:12.690Z,14.51
2018-04-17T02:12:41.065Z,15.19
2018-04-17T02:15:13.962Z,15.12
2018-04-17T02:17:42.145Z,15.11
2018-04-17T02:20:17.314Z,15.10
2018-04-17T02:22:45.723Z,15.08
2018-04-17T02:25:14.109Z,15.05
2018-04-17T02:27:42.496Z,15.05
2018-04-17T02:30:15.886Z,15.05
2018-04-17T02:32:44.283Z,15.00
2018-04-17T02:35:16.137Z,15.01
2018-04-17T02:37:44.767Z,14.97
2018-04-17T02:40:14.760Z,14.98
2018-04-17T02:42:43.158Z,14.96
2018-04-17T02:45:11.553Z,14.92
2018-04-17T02:47:39.934Z,14.88
2018-04-17T02:50:10.428Z,14.87
2018-04-17T02:52:38.818Z,14.87
2018-04-17T02:55:12.834Z,14.86
2018-04-17T02:57:41.232Z,14.60
2018-04-17T03:00:14.987Z,14.84
2018-04-17T03:02:43.457Z,14.81
2018-04-17T03:05:15.760Z,14.79
2018-04-17T03:07:44.146Z,14.82
2018-04-17T03:10:15.718Z,14.79
2018-04-17T03:12:44.097Z,14.76
2018-04-17T03:15:16.946Z,14.26
2018-04-17T03:17:45.329Z,14.75
2018-04-17T03:20:16.139Z,14.74
2018-04-17T03:22:44.510Z,14.74
2018-04-17T03:25:16.922Z,14.74
2018-04-17T03:27:45.301Z,14.75
2018-04-17T03:30:16.555Z,14.71
2018-04-17T03:32:44.922Z,14.72
2018-04-17T03:35:15.960Z,14.27
2018-04-17T03:37:44.346Z,14.63
2018-04-17T03:40:16.093Z,14.62
2018-04-17T03:42:44.485Z,14.64
2018-04-17T03:45:17.012Z,14.64
2018-04-17T03:47:45.400Z,14.58
2018-04-17T03:50:13.769Z,14.60
2018-04-17T03:52:42.148Z,14.57
2018-04-17T03:55:15.549Z,14.58
2018-04-17T03:57:43.916Z,14.59
2018-04-17T04:00:12.959Z,14.57
2018-04-17T04:02:41.346Z,14.58
2018-04-17T04:05:16.516Z,14.59
2018-04-17T04:07:44.909Z,14.59
2018-04-17T04:10:16.610Z,14.59
2018-04-17T04:12:46.469Z,14.59
2018-04-17T04:15:16.018Z,14.55
2018-04-17T04:17:55.594Z,14.53
2018-04-17T04:20:35.151Z,14.55
2018-04-17T04:23:14.556Z,14.54
2018-04-17T04:28:54.800Z,14.49
2018-04-17T04:31:23.201Z,14.49
2018-04-17T04:33:51.790Z,14.46
2018-04-17T04:36:20.164Z,14.46
2018-04-17T04:38:48.569Z,14.44
2018-04-17T04:41:16.969Z,14.45
2018-04-17T04:43:45.373Z,14.45
2018-04-17T04:46:13.776Z,14.48
2018-04-17T04:48:42.807Z,14.46
2018-04-17T04:51:10.940Z,14.49
2018-04-17T04:53:39.321Z,14.51
2018-04-17T04:56:07.700Z,14.54
2018-04-17T04:58:36.075Z,14.55
2018-04-17T05:01:07.777Z,14.55
2018-04-17T05:03:36.159Z,14.55
2018-04-17T05:06:05.172Z,14.57
2018-04-17T05:08:33.561Z,14.57
2018-04-17T05:11:01.960Z,14.57
2018-04-17T05:13:30.373Z,14.57
2018-04-17T05:15:58.750Z,14.58
2018-04-17T05:18:27.162Z,14.61
2018-04-17T05:20:55.734Z,14.67
2018-04-17T05:23:24.117Z,14.70
2018-04-17T05:25:52.505Z,14.72
2018-04-17T05:28:20.882Z,14.76
2018-04-17T05:30:49.288Z,14.80
2018-04-17T05:33:17.677Z,14.84
2018-04-17T05:35:46.056Z,14.91
2018-04-17T05:38:14.437Z,15.01
2018-04-17T05:40:42.833Z,15.02
2018-04-17T05:43:11.257Z,14.99
2018-04-17T05:45:39.634Z,15.09
2018-04-17T05:48:08.872Z,15.12
2018-04-17T05:50:37.246Z,15.13
2018-04-17T05:53:05.610Z,15.18
2018-04-17T05:55:36.331Z,15.13
2018-04-17T05:58:04.393Z,15.16
2018-04-17T06:00:32.770Z,15.21
2018-04-17T06:03:01.561Z,15.28
2018-04-17T06:05:30.714Z,15.32
2018-04-17T06:07:59.273Z,15.30
2018-04-17T06:10:27.679Z,15.32
2018-04-17T06:12:56.056Z,15.33
2018-04-17T06:15:24.439Z,15.44
2018-04-17T06:17:52.841Z,15.42
2018-04-17T06:20:20.980Z,15.43
2018-04-17T06:22:49.354Z,15.54
2018-04-17T06:25:17.728Z,15.61
2018-04-17T06:27:46.109Z,15.70
2018-04-17T06:30:14.509Z,15.73
2018-04-17T06:32:42.897Z,15.80
2018-04-17T06:35:11.287Z,15.82
2018-04-17T06:37:39.725Z,15.92
2018-04-17T06:40:15.275Z,15.94
2018-04-17T06:42:43.650Z,15.92
2018-04-17T06:45:12.010Z,16.00
2018-04-17T06:47:40.471Z,16.09
2018-04-17T06:50:17.609Z,16.04
2018-04-17T06:52:46.008Z,16.10
2018-04-17T06:55:16.947Z,16.15
2018-04-17T06:57:45.325Z,16.31
2018-04-17T07:00:13.501Z,16.27
2018-04-17T07:06:12.791Z,16.30
2018-04-17T07:08:41.170Z,16.19
2018-04-17T07:11:09.589Z,16.33
2018-04-17T07:13:38.113Z,16.48
2018-04-17T07:16:06.486Z,16.61
2018-04-17T07:18:34.889Z,16.62
2018-04-17T07:21:03.268Z,16.68
2018-04-17T07:23:31.637Z,16.71
2018-04-17T07:26:00.109Z,16.74
2018-04-17T07:28:28.694Z,16.81
2018-04-17T07:30:57.069Z,16.85
2018-04-17T07:33:25.449Z,16.93
2018-04-17T07:35:53.828Z,17.04
2018-04-17T07:38:22.220Z,17.12
2018-04-17T07:40:50.587Z,17.16
2018-04-17T07:43:18.958Z,17.13
2018-04-17T07:45:47.321Z,17.11
2018-04-17T07:48:26.685Z,17.24
2018-04-17T07:50:55.071Z,17.24
2018-04-17T07:53:23.444Z,17.17
2018-04-17T07:55:51.822Z,17.19
2018-04-17T07:58:20.195Z,17.26
2018-04-17T08:00:48.578Z,16.87
2018-04-17T08:03:16.976Z,17.45
2018-04-17T08:05:45.344Z,17.70
2018-04-17T08:08:13.716Z,17.88
2018-04-17T08:10:42.091Z,17.82
2018-04-17T08:13:10.456Z,17.64
2018-04-17T08:15:38.822Z,17.75
2018-04-17T08:18:07.371Z,17.87
2018-04-17T08:20:35.757Z,17.91
2018-04-17T08:23:04.142Z,17.86
2018-04-17T08:25:32.527Z,18.04
2018-04-17T08:28:00.888Z,17.92
2018-04-17T08:30:29.267Z,18.12
2018-04-17T08:32:57.640Z,17.97
2018-04-17T08:35:26.011Z,17.70
2018-04-17T08:37:54.388Z,17.63
2018-04-17T08:40:22.753Z,17.78
2018-04-17T08:42:51.129Z,17.84
2018-04-17T08:45:19.510Z,17.80
2018-04-17T08:47:47.887Z,17.64
2018-04-17T08:50:16.258Z,17.84
2018-04-17T08:52:44.631Z,17.93
2018-04-17T08:55:13.022Z,17.67
2018-04-17T08:57:41.386Z,17.73
2018-04-17T09:00:11.426Z,18.03
2018-04-17T09:02:39.798Z,17.95
2018-04-17T09:05:15.221Z,17.81
2018-04-17T09:07:43.765Z,18.16
2018-04-17T09:10:17.556Z,17.56
2018-04-17T09:12:45.738Z,18.25
2018-04-17T09:15:14.132Z,17.74
2018-04-17T09:17:42.543Z,18.30
2018-04-17T09:20:17.026Z,17.84
2018-04-17T09:22:45.402Z,18.21
2018-04-17T09:25:13.782Z,17.86
2018-04-17T09:27:42.167Z,18.13
2018-04-17T09:30:16.152Z,17.98
2018-04-17T09:32:44.523Z,18.38
2018-04-17T09:35:16.416Z,18.38
2018-04-17T09:37:44.804Z,18.68
2018-04-17T09:40:17.552Z,18.84
2018-04-17T09:42:46.852Z,18.65
2018-04-17T09:45:15.232Z,18.42
2018-04-17T09:47:43.606Z,18.69
2018-04-17T09:50:16.364Z,18.12
2018-04-17T09:52:44.754Z,19.38
2018-04-17T09:55:13.144Z,19.79
2018-04-17T09:57:41.509Z,20.30
2018-04-17T10:00:16.513Z,20.55
2018-04-17T10:02:44.892Z,20.47
2018-04-17T10:05:13.293Z,20.43
2018-04-17T10:07:41.675Z,20.71
2018-04-17T10:10:15.501Z,20.30
2018-04-17T10:12:43.879Z,20.66
2018-04-17T10:15:17.064Z,20.62
2018-04-17T10:17:45.447Z,20.33
2018-04-17T10:20:15.305Z,20.83
2018-04-17T10:22:43.698Z,20.78
2018-04-17T10:25:12.849Z,20.24
2018-04-17T10:27:41.228Z,21.35
2018-04-17T10:30:12.686Z,21.45
2018-04-17T10:32:41.063Z,21.06
2018-04-17T10:35:12.233Z,20.70
2018-04-17T10:37:40.601Z,20.69
2018-04-17T10:40:12.340Z,20.75
2018-04-17T10:42:40.588Z,21.10
2018-04-17T10:45:15.485Z,21.13
2018-04-17T10:47:43.857Z,20.51
2018-04-17T10:50:16.309Z,21.14
2018-04-17T10:52:44.682Z,20.86
2018-04-17T10:55:12.864Z,20.70
2018-04-17T10:57:41.512Z,20.47
2018-04-17T11:00:16.106Z,20.62
2018-04-17T11:02:44.477Z,20.71
2018-04-17T11:05:16.701Z,19.89
2018-04-17T11:07:45.077Z,20.63
2018-04-17T11:10:16.302Z,20.60
2018-04-17T11:12:44.665Z,20.54
2018-04-17T11:15:13.302Z,20.58
2018-04-17T11:17:41.688Z,20.77
2018-04-17T11:20:15.746Z,20.93
2018-04-17T11:22:44.120Z,20.99
2018-04-17T11:25:13.755Z,21.22
2018-04-17T11:27:42.133Z,21.19
2018-04-17T11:30:22.715Z,21.09
2018-04-17T11:32:51.108Z,21.15
2018-04-17T11:35:19.497Z,21.30
2018-04-17T11:37:47.895Z,21.67
2018-04-17T11:40:17.140Z,20.95
2018-04-17T11:42:45.514Z,21.35
2018-04-17T11:45:13.895Z,21.13
2018-04-17T11:47:42.297Z,21.24
2018-04-17T11:50:11.545Z,21.37
2018-04-17T11:52:39.918Z,21.45
2018-04-17T11:55:09.826Z,21.66
2018-04-17T11:57:38.213Z,21.63
2018-04-17T12:00:09.392Z,21.13
2018-04-17T12:02:37.769Z,21.48
2018-04-17T12:05:12.325Z,21.51
2018-04-17T12:07:40.861Z,21.47
2018-04-17T12:10:15.233Z,21.59
2018-04-17T12:12:43.380Z,21.80
2018-04-17T12:15:11.757Z,21.74
2018-04-17T12:17:40.156Z,21.49
2018-04-17T12:20:10.817Z,21.43
2018-04-17T12:22:39.212Z,21.44
2018-04-17T12:25:07.596Z,21.63
2018-04-17T12:27:35.957Z,21.72
2018-04-17T12:30:04.762Z,21.78
2018-04-17T12:32:34.940Z,21.97
2018-04-17T12:35:03.313Z,21.93
2018-04-17T12:37:31.689Z,21.92
2018-04-17T12:40:00.061Z,21.80
2018-04-17T12:42:28.424Z,21.54
2018-04-17T12:44:56.808Z,21.60
2018-04-17T12:47:25.176Z,21.60
2018-04-17T12:49:53.570Z,21.97
2018-04-17T12:52:21.933Z,21.82
2018-04-17T12:54:50.302Z,21.71
2018-04-17T12:57:18.725Z,21.63
2018-04-17T12:59:47.309Z,21.63
2018-04-17T13:02:15.684Z,21.83
2018-04-17T13:04:44.042Z,22.09
2018-04-17T13:07:12.487Z,22.07
2018-04-17T13:09:40.861Z,21.81
2018-04-17T13:12:09.237Z,21.69
2018-04-17T13:14:37.601Z,21.99
2018-04-17T13:17:06.001Z,22.30
2018-04-17T13:19:34.379Z,22.48
2018-04-17T13:22:02.774Z,21.91
2018-04-17T13:24:30.980Z,21.85
2018-04-17T13:26:59.360Z,21.61
2018-04-17T13:29:27.724Z,21.61
2018-04-17T13:31:56.094Z,21.83
2018-04-17T13:34:24.469Z,22.01
2018-04-17T13:36:52.834Z,21.90
2018-04-17T13:39:21.222Z,22.05
2018-04-17T13:41:49.592Z,21.99
2018-04-17T13:44:17.976Z,21.86
2018-04-17T13:46:46.353Z,21.73
2018-04-17T13:49:14.728Z,21.97
2018-04-17T13:51:43.101Z,21.96
2018-04-17T13:54:11.541Z,22.19
2018-04-17T13:56:40.051Z,22.23
2018-04-17T13:59:08.420Z,22.17
2018-04-17T14:01:36.783Z,22.08
2018-04-17T14:04:04.842Z,21.93
2018-04-17T14:06:33.623Z,22.02
2018-04-17T14:09:02.165Z,22.12
2018-04-17T14:11:30.565Z,22.07
2018-04-17T14:13:58.943Z,22.14
2018-04-17T14:16:27.358Z,22.11
2018-04-17T14:18:55.724Z,22.18
2018-04-17T14:21:24.115Z,22.21
2018-04-17T14:23:52.476Z,22.42
2018-04-17T14:26:20.873Z,22.45
2018-04-17T14:28:49.246Z,22.68
2018-04-17T14:31:17.642Z,22.48
2018-04-17T14:33:46.007Z,22.40
2018-04-17T14:36:14.384Z,22.36
2018-04-17T14:38:42.745Z,22.39
2018-04-17T14:41:11.117Z,22.47
2018-04-17T14:43:39.541Z,22.36
2018-04-17T14:46:08.073Z,22.16
2018-04-17T14:48:36.221Z,21.98
2018-04-17T14:51:04.629Z,22.05
2018-04-17T14:53:33.037Z,21.91
2018-04-17T14:56:01.459Z,21.84
2018-04-17T14:58:29.864Z,21.73
2018-04-17T15:00:58.239Z,21.49
2018-04-17T15:03:26.671Z,21.59
2018-04-17T15:05:55.178Z,21.63
2018-04-17T15:08:23.796Z,21.56
2018-04-17T15:10:51.892Z,21.52
2018-04-17T15:13:20.249Z,21.50
2018-04-17T15:15:48.629Z,21.41
2018-04-17T15:18:17.000Z,21.40
2018-04-17T15:20:45.384Z,21.41
2018-04-17T15:23:13.761Z,21.29
2018-04-17T15:25:42.131Z,21.38
2018-04-17T15:28:10.508Z,21.28
2018-04-17T15:30:38.886Z,21.24
2018-04-17T15:33:07.261Z,21.21
2018-04-17T15:35:36.292Z,21.30
2018-04-17T15:38:04.682Z,21.39
2018-04-17T15:40:33.091Z,21.45
2018-04-17T15:43:01.471Z,21.47
2018-04-17T15:45:29.852Z,21.53
2018-04-17T15:47:58.450Z,21.49
2018-04-17T15:50:26.666Z,21.45
2018-04-17T15:52:55.053Z,21.46
2018-04-17T15:55:24.365Z,21.51
2018-04-17T15:57:53.017Z,21.55
2018-04-17T16:00:21.404Z,21.56
2018-04-17T16:02:49.950Z,21.56
2018-04-17T16:05:18.335Z,21.53
2018-04-17T16:07:46.771Z,21.48
2018-04-17T16:10:16.844Z,21.39
2018-04-17T16:12:45.252Z,21.33
2018-04-17T16:15:13.629Z,21.36
2018-04-17T16:17:42.022Z,21.39
2018-04-17T16:20:16.597Z,21.42
2018-04-17T16:22:45.031Z,21.32
2018-04-17T16:25:16.337Z,21.30
2018-04-17T16:27:45.055Z,21.27
2018-04-17T16:30:17.638Z,21.25
2018-04-17T16:32:46.016Z,21.22
2018-04-17T16:35:17.264Z,21.20
2018-04-17T16:37:45.396Z,21.21
2018-04-17T16:40:17.378Z,21.18
2018-04-17T16:42:45.776Z,21.18
2018-04-17T16:45:16.799Z,21.21
2018-04-17T16:47:45.185Z,21.19
2018-04-17T16:50:13.554Z,21.17
2018-04-17T16:52:41.931Z,21.17
2018-04-17T16:55:16.290Z,21.14
2018-04-17T16:57:44.657Z,21.12
2018-04-17T17:00:15.279Z,21.07
2018-04-17T17:02:43.647Z,21.02
2018-04-17T17:05:17.457Z,20.59
2018-04-17T17:07:46.037Z,21.06
2018-04-17T17:10:15.245Z,21.03
2018-04-17T17:12:43.663Z,21.02
2018-04-17T17:15:15.769Z,21.00
2018-04-17T17:17:44.181Z,20.98
2018-04-17T17:20:16.639Z,20.94
2018-04-17T17:22:45.018Z,20.83
2018-04-17T17:25:17.738Z,20.82
2018-04-17T17:27:46.126Z,20.75
2018-04-17T17:30:22.814Z,20.71
2018-04-17T17:32:51.272Z,20.68
2018-04-17T17:35:19.436Z,20.60
2018-04-17T17:37:47.832Z,20.53
2018-04-17T17:40:16.972Z,20.52
2018-04-17T17:42:45.999Z,20.49
2018-04-17T17:45:16.186Z,20.04
